createdAt,value
2018-05-08T00:00:40.840Z,3.00
2018-05-08T00:01:43.336Z,2.58
2018-05-08T00:02:46.324Z,2.83
2018-05-08T00:03:48.809Z,3.25
2018-05-08T00:04:52.170Z,2.87
2018-05-08T00:05:54.656Z,2.78
2018-05-08T00:06:57.164Z,3.00
2018-05-08T00:07:59.646Z,3.03
2018-05-08T00:09:02.156Z,3.55
2018-05-08T00:10:04.698Z,3.28
2018-05-08T00:11:07.192Z,2.80
2018-05-08T00:12:09.829Z,3.60
2018-05-08T00:13:12.322Z,2.90
2018-05-08T00:14:14.818Z,3.30
2018-05-08T00:15:17.405Z,3.25
2018-05-08T00:16:20.682Z,3.40
2018-05-08T00:17:23.226Z,3.22
2018-05-08T00:18:25.711Z,3.95
2018-05-08T00:19:28.331Z,3.12
2018-05-08T00:20:30.858Z,3.30
2018-05-08T00:21:34.856Z,2.78
2018-05-08T00:22:37.383Z,3.22
2018-05-08T00:23:39.867Z,3.62
2018-05-08T00:24:42.362Z,2.40
2018-05-08T00:25:44.895Z,2.72
2018-05-08T00:26:47.381Z,3.30
2018-05-08T00:27:49.870Z,3.08
2018-05-08T00:28:52.357Z,3.40
2018-05-08T00:29:54.849Z,3.60
2018-05-08T00:30:58.132Z,3.30
2018-05-08T00:32:01.394Z,3.25
2018-05-08T00:33:03.904Z,3.22
2018-05-08T00:34:07.166Z,3.03
2018-05-08T00:35:09.672Z,3.00
2018-05-08T00:36:12.177Z,3.20
2018-05-08T00:37:14.683Z,2.92
2018-05-08T00:38:17.162Z,3.35
2018-05-08T00:39:20.431Z,3.30
2018-05-08T00:40:22.927Z,3.95
2018-05-08T00:41:26.207Z,3.60
2018-05-08T00:42:29.460Z,3.50
2018-05-08T00:43:31.959Z,3.70
2018-05-08T00:44:35.274Z,3.85
2018-05-08T00:45:37.788Z,3.67
2018-05-08T00:46:40.316Z,3.40
2018-05-08T00:47:42.800Z,3.28
2018-05-08T00:48:45.304Z,3.20
2018-05-08T00:49:47.787Z,3.55
2018-05-08T00:50:50.286Z,3.97
2018-05-08T00:51:53.550Z,3.20
2018-05-08T00:52:56.040Z,3.47
2018-05-08T00:53:59.299Z,3.30
2018-05-08T00:55:05.683Z,3.10
2018-05-08T00:56:08.939Z,4.00
2018-05-08T00:57:11.445Z,3.90
2018-05-08T00:58:14.687Z,4.15
2018-05-08T00:59:17.289Z,3.50
2018-05-08T01:00:19.806Z,3.00
2018-05-08T01:01:22.299Z,3.53
2018-05-08T01:02:24.811Z,3.80
2018-05-08T01:03:28.078Z,4.40
2018-05-08T01:04:30.593Z,3.37
2018-05-08T01:05:33.107Z,4.03
2018-05-08T01:06:35.587Z,4.30
2018-05-08T01:07:38.086Z,3.85
2018-05-08T01:08:41.335Z,3.75
2018-05-08T01:09:43.826Z,3.25
2018-05-08T01:10:46.336Z,3.50
2018-05-08T01:11:48.818Z,4.03
2018-05-08T01:12:51.323Z,3.15
2018-05-08T01:13:53.809Z,3.80
2018-05-08T01:14:56.307Z,3.85
2018-05-08T01:15:58.795Z,3.40
2018-05-08T01:17:01.322Z,3.35
2018-05-08T01:18:03.792Z,3.78
2018-05-08T01:19:07.043Z,4.45
2018-05-08T01:20:09.537Z,3.50
2018-05-08T01:21:12.023Z,3.35
2018-05-08T01:22:15.293Z,3.55
2018-05-08T01:23:17.790Z,3.58
2018-05-08T01:24:21.041Z,3.42
2018-05-08T01:25:23.549Z,4.12
2018-05-08T01:26:26.851Z,3.30
2018-05-08T01:27:29.347Z,3.80
2018-05-08T01:28:31.842Z,3.90
2018-05-08T01:29:34.325Z,2.95
2018-05-08T01:30:36.828Z,4.10
2018-05-08T01:31:39.381Z,3.90
2018-05-08T01:32:41.816Z,3.00
2018-05-08T01:33:44.327Z,3.60
2018-05-08T01:34:47.570Z,3.65
2018-05-08T01:35:50.053Z,3.67
2018-05-08T01:36:52.553Z,3.90
2018-05-08T01:37:55.806Z,3.90
2018-05-08T01:38:58.324Z,3.55
2018-05-08T01:40:00.805Z,3.08
2018-05-08T01:41:03.288Z,3.97
2018-05-08T01:42:05.773Z,3.90
2018-05-08T01:43:08.251Z,3.58
2018-05-08T01:44:10.779Z,3.40
2018-05-08T01:45:13.293Z,3.30
2018-05-08T01:46:15.784Z,4.05
2018-05-08T01:47:19.029Z,3.47
2018-05-08T01:48:21.513Z,3.92
2018-05-08T01:49:24.009Z,3.90
2018-05-08T01:50:26.520Z,4.10
2018-05-08T01:51:29.030Z,4.55
2018-05-08T01:52:31.510Z,3.47
2018-05-08T01:53:34.000Z,3.25
2018-05-08T01:54:37.314Z,3.65
2018-05-08T01:55:39.836Z,3.37
2018-05-08T01:56:42.332Z,3.78
2018-05-08T01:57:45.640Z,3.92
2018-05-08T01:58:48.128Z,3.33
2018-05-08T01:59:50.628Z,3.90
2018-05-08T02:00:53.149Z,4.00
2018-05-08T02:01:55.726Z,3.60
2018-05-08T02:02:58.220Z,3.92
2018-05-08T02:04:00.715Z,4.30
2018-05-08T02:05:03.237Z,3.67
2018-05-08T02:06:05.724Z,3.80
2018-05-08T02:07:08.225Z,3.58
2018-05-08T02:08:10.733Z,3.40
2018-05-08T02:09:13.989Z,3.72
2018-05-08T02:10:16.504Z,3.90
2018-05-08T02:11:18.991Z,3.78
2018-05-08T02:12:21.479Z,3.80
2018-05-08T02:13:23.964Z,4.10
2018-05-08T02:14:26.478Z,3.78
2018-05-08T02:15:28.991Z,3.30
2018-05-08T02:16:31.471Z,3.78
2018-05-08T02:17:33.967Z,3.92
2018-05-08T02:18:37.229Z,4.10
2018-05-08T02:19:39.755Z,3.70
2018-05-08T02:20:42.265Z,3.67
2018-05-08T02:21:44.764Z,4.07
2018-05-08T02:22:48.029Z,3.10
2018-05-08T02:23:50.534Z,4.03
2018-05-08T02:24:53.807Z,3.60
2018-05-08T02:25:56.347Z,4.03
2018-05-08T02:26:58.805Z,4.15
2018-05-08T02:28:01.284Z,4.03
2018-05-08T02:29:03.821Z,4.30
2018-05-08T02:30:06.393Z,3.97
2018-05-08T02:31:08.888Z,3.75
2018-05-08T02:32:11.370Z,3.65
2018-05-08T02:33:13.858Z,4.20
2018-05-08T02:34:16.343Z,4.15
2018-05-08T02:35:19.611Z,3.70
2018-05-08T02:36:22.116Z,4.20
2018-05-08T02:37:24.621Z,3.58
2018-05-08T02:38:27.106Z,3.53
2018-05-08T02:39:29.638Z,3.85
2018-05-08T02:40:32.143Z,3.87
2018-05-08T02:41:34.640Z,4.65
2018-05-08T02:42:38.630Z,4.40
2018-05-08T02:43:41.111Z,4.10
2018-05-08T02:44:43.602Z,4.50
2018-05-08T02:45:46.884Z,3.72
2018-05-08T02:46:50.172Z,4.37
2018-05-08T02:47:53.435Z,4.05
2018-05-08T02:48:55.939Z,3.35
2018-05-08T02:49:59.211Z,4.10
2018-05-08T02:51:01.707Z,3.80
2018-05-08T02:52:04.210Z,3.85
2018-05-08T02:53:06.701Z,4.00
2018-05-08T02:54:09.190Z,4.00
2018-05-08T02:55:11.862Z,3.60
2018-05-08T02:56:14.366Z,4.40
2018-05-08T02:57:16.938Z,4.45
2018-05-08T02:58:19.435Z,4.20
2018-05-08T02:59:21.916Z,4.68
2018-05-08T03:00:24.406Z,4.50
2018-05-08T03:01:26.910Z,3.75
2018-05-08T03:02:30.194Z,4.78
2018-05-08T03:03:33.452Z,3.30
2018-05-08T03:04:35.948Z,4.43
2018-05-08T03:05:39.223Z,3.80
2018-05-08T03:06:41.724Z,4.40
2018-05-08T03:07:44.239Z,3.90
2018-05-08T03:08:46.725Z,4.07
2018-05-08T03:09:49.235Z,3.92
2018-05-08T03:10:51.753Z,4.35
2018-05-08T03:11:54.236Z,3.87
2018-05-08T03:12:56.738Z,4.28
2018-05-08T03:13:59.232Z,4.62
2018-05-08T03:15:01.736Z,3.65
2018-05-08T03:16:04.250Z,4.57
2018-05-08T03:17:06.739Z,4.25
2018-05-08T03:18:09.229Z,3.90
2018-05-08T03:19:11.719Z,4.07
2018-05-08T03:20:14.230Z,4.60
2018-05-08T03:21:16.719Z,4.75
2018-05-08T03:22:19.280Z,4.78
2018-05-08T03:23:23.233Z,4.05
2018-05-08T03:24:25.720Z,4.22
2018-05-08T03:25:29.017Z,4.25
2018-05-08T03:26:32.284Z,4.57
2018-05-08T03:27:34.778Z,4.05
2018-05-08T03:28:38.068Z,4.25
2018-05-08T03:29:41.332Z,4.25
2018-05-08T03:30:43.838Z,4.80
2018-05-08T03:31:46.322Z,3.85
2018-05-08T03:32:48.885Z,4.87
2018-05-08T03:33:51.375Z,4.50
2018-05-08T03:34:53.860Z,4.97
2018-05-08T03:35:56.340Z,4.65
2018-05-08T03:36:58.824Z,4.80
2018-05-08T03:38:01.326Z,3.78
2018-05-08T03:39:03.826Z,4.40
2018-05-08T03:40:06.349Z,4.40
2018-05-08T03:41:09.620Z,4.40
2018-05-08T03:42:12.126Z,4.40
2018-05-08T03:43:15.383Z,4.60
2018-05-08T03:44:17.879Z,4.25
2018-05-08T03:45:21.153Z,4.30
2018-05-08T03:46:24.413Z,5.18
2018-05-08T03:47:26.896Z,4.22
2018-05-08T03:48:29.412Z,4.25
2018-05-08T03:49:31.953Z,4.62
2018-05-08T03:50:34.456Z,4.32
2018-05-08T03:51:36.976Z,4.43
2018-05-08T03:52:40.218Z,4.18
2018-05-08T03:53:42.785Z,4.37
2018-05-08T03:54:45.278Z,4.15
2018-05-08T03:55:47.793Z,4.10
2018-05-08T03:56:51.061Z,3.67
2018-05-08T03:57:53.559Z,4.00
2018-05-08T03:58:56.816Z,4.32
2018-05-08T04:00:00.200Z,4.68
2018-05-08T04:01:14.546Z,4.55
2018-05-08T04:02:28.993Z,4.53
2018-05-08T04:03:43.411Z,4.47
2018-05-08T04:04:57.730Z,4.25
2018-05-08T04:06:04.624Z,4.20
2018-05-08T04:07:19.101Z,4.40
2018-05-08T04:08:36.465Z,3.95
2018-05-08T04:09:38.972Z,4.70
2018-05-08T04:10:41.501Z,4.40
2018-05-08T04:11:43.999Z,4.20
2018-05-08T04:12:46.507Z,4.68
2018-05-08T04:13:48.992Z,4.10
2018-05-08T04:14:53.016Z,4.72
2018-05-08T04:15:55.500Z,4.10
2018-05-08T04:16:58.756Z,4.43
2018-05-08T04:18:01.254Z,4.05
2018-05-08T04:19:04.518Z,5.05
2018-05-08T04:20:07.041Z,4.50
2018-05-08T04:21:09.682Z,4.35
2018-05-08T04:22:12.146Z,4.50
2018-05-08T04:23:14.629Z,4.03
2018-05-08T04:24:17.905Z,4.10
2018-05-08T04:25:20.439Z,4.30
2018-05-08T04:26:22.918Z,4.05
2018-05-08T04:27:25.409Z,4.22
2018-05-08T04:28:27.898Z,4.30
2018-05-08T04:29:31.148Z,4.15
2018-05-08T04:30:33.716Z,3.95
2018-05-08T04:31:36.210Z,4.20
2018-05-08T04:32:38.706Z,3.80
2018-05-08T04:33:41.949Z,3.50
2018-05-08T04:34:45.969Z,4.45
2018-05-08T04:35:48.479Z,3.97
2018-05-08T04:36:51.006Z,3.90
2018-05-08T04:37:53.493Z,4.10
2018-05-08T04:38:55.979Z,4.80
2018-05-08T04:39:59.251Z,4.30
2018-05-08T04:41:01.781Z,4.18
2018-05-08T04:42:04.292Z,4.10
2018-05-08T04:43:06.776Z,4.25
2018-05-08T04:44:10.117Z,3.97
2018-05-08T04:45:12.660Z,4.28
2018-05-08T04:46:15.169Z,4.35
2018-05-08T04:47:17.675Z,3.87
2018-05-08T04:48:20.934Z,3.95
2018-05-08T04:49:23.428Z,3.37
2018-05-08T04:50:26.720Z,3.92
2018-05-08T04:51:29.981Z,4.28
2018-05-08T04:52:32.495Z,4.12
2018-05-08T04:53:34.983Z,3.78
2018-05-08T04:54:37.474Z,3.55
2018-05-08T04:55:40.014Z,3.30
2018-05-08T04:56:42.521Z,3.70
2018-05-08T04:57:45.038Z,5.35
2018-05-08T04:58:48.286Z,3.50
2018-05-08T04:59:50.771Z,3.95
2018-05-08T05:00:53.254Z,4.20
2018-05-08T05:01:56.527Z,4.12
2018-05-08T05:02:59.037Z,4.15
2018-05-08T05:04:01.553Z,4.05
2018-05-08T05:05:04.182Z,3.92
2018-05-08T05:06:06.674Z,3.72
2018-05-08T05:07:09.198Z,3.67
2018-05-08T05:08:12.527Z,4.00
2018-05-08T05:09:15.023Z,3.83
2018-05-08T05:10:17.540Z,3.50
2018-05-08T05:11:20.051Z,4.05
2018-05-08T05:12:22.558Z,4.20
2018-05-08T05:13:25.869Z,3.60
2018-05-08T05:14:29.136Z,3.80
2018-05-08T05:15:32.436Z,3.90
2018-05-08T05:16:35.701Z,4.18
2018-05-08T05:17:38.222Z,4.07
2018-05-08T05:18:40.720Z,3.13
2018-05-08T05:19:43.233Z,4.10
2018-05-08T05:20:46.506Z,4.33
2018-05-08T05:21:49.004Z,3.60
2018-05-08T05:22:52.265Z,3.23
2018-05-08T05:23:54.753Z,3.70
2018-05-08T05:24:57.245Z,3.93
2018-05-08T05:25:59.753Z,3.53
2018-05-08T05:27:02.248Z,4.10
2018-05-08T05:28:04.744Z,3.57
2018-05-08T05:29:07.999Z,3.57
2018-05-08T05:30:10.716Z,3.90
2018-05-08T05:31:13.340Z,3.00
2018-05-08T05:32:15.862Z,3.90
2018-05-08T05:33:18.394Z,3.30
2018-05-08T05:34:20.885Z,3.10
2018-05-08T05:35:24.166Z,4.03
2018-05-08T05:36:27.426Z,3.70
2018-05-08T05:37:29.919Z,3.60
2018-05-08T05:38:32.425Z,3.27
2018-05-08T05:39:34.929Z,3.70
2018-05-08T05:40:37.461Z,4.00
2018-05-08T05:41:39.958Z,3.80
2018-05-08T05:42:42.501Z,3.13
2018-05-08T05:43:45.738Z,3.03
2018-05-08T05:44:48.224Z,3.37
2018-05-08T05:45:50.717Z,3.40
2018-05-08T05:46:53.957Z,3.70
2018-05-08T05:47:56.456Z,3.23
2018-05-08T05:48:59.058Z,3.47
2018-05-08T05:50:01.564Z,3.50
2018-05-08T05:51:04.053Z,3.60
2018-05-08T05:52:06.532Z,3.70
2018-05-08T05:53:09.053Z,3.40
2018-05-08T05:54:11.612Z,3.93
2018-05-08T05:55:14.112Z,3.20
2018-05-08T05:56:16.670Z,3.10
2018-05-08T05:57:19.155Z,3.40
2018-05-08T05:58:21.715Z,3.53
2018-05-08T05:59:24.329Z,3.73
2018-05-08T06:00:27.605Z,3.90
2018-05-08T06:01:30.078Z,4.00
2018-05-08T06:02:32.564Z,2.70
2018-05-08T06:03:35.050Z,3.80
2018-05-08T06:04:38.326Z,3.50
2018-05-08T06:05:40.877Z,3.30
2018-05-08T06:06:44.141Z,3.00
2018-05-08T06:07:46.642Z,3.00
2018-05-08T06:08:49.128Z,3.50
2018-05-08T06:09:52.394Z,3.43
2018-05-08T06:10:54.880Z,3.30
2018-05-08T06:11:57.413Z,3.50
2018-05-08T06:13:00.058Z,3.63
2018-05-08T06:14:02.571Z,3.30
2018-05-08T06:15:05.126Z,3.30
2018-05-08T06:16:07.609Z,3.17
2018-05-08T06:17:10.169Z,3.13
2018-05-08T06:18:12.682Z,3.00
2018-05-08T06:19:15.937Z,2.90
2018-05-08T06:20:18.471Z,2.90
2018-05-08T06:21:20.968Z,3.50
2018-05-08T06:22:23.473Z,3.57
2018-05-08T06:23:25.981Z,3.60
2018-05-08T06:24:28.481Z,3.07
2018-05-08T06:25:31.016Z,3.17
2018-05-08T06:26:33.517Z,3.13
2018-05-08T06:27:36.806Z,3.00
2018-05-08T06:28:39.289Z,3.50
2018-05-08T06:29:41.833Z,3.30
2018-05-08T06:30:44.358Z,3.13
2018-05-08T06:31:46.833Z,3.20
2018-05-08T06:32:50.100Z,3.50
2018-05-08T06:33:52.598Z,3.07
2018-05-08T06:34:55.879Z,3.10
2018-05-08T06:35:58.385Z,3.47
2018-05-08T06:37:00.884Z,3.60
2018-05-08T06:38:03.360Z,3.20
2018-05-08T06:39:05.846Z,3.00
2018-05-08T06:40:08.507Z,3.80
2018-05-08T06:41:10.918Z,2.83
2018-05-08T06:42:13.422Z,3.20
2018-05-08T06:43:15.934Z,3.10
2018-05-08T06:44:18.479Z,3.00
2018-05-08T06:45:20.936Z,3.00
2018-05-08T06:46:23.479Z,2.97
2018-05-08T06:47:26.222Z,2.87
2018-05-08T06:48:28.707Z,3.50
2018-05-08T06:49:31.967Z,4.20
2018-05-08T06:50:35.271Z,2.80
2018-05-08T06:51:38.543Z,3.40
2018-05-08T06:52:41.044Z,3.20
2018-05-08T06:53:44.313Z,2.83
2018-05-08T06:54:46.902Z,3.97
2018-05-08T06:55:49.325Z,3.10
2018-05-08T06:56:51.814Z,2.83
2018-05-08T06:57:54.325Z,2.97
2018-05-08T06:58:56.817Z,2.70
2018-05-08T06:59:59.317Z,2.90
2018-05-08T07:01:01.793Z,2.77
2018-05-08T07:02:04.277Z,3.67
2018-05-08T07:03:06.774Z,3.20
2018-05-08T07:04:09.276Z,3.17
2018-05-08T07:05:11.797Z,3.03
2018-05-08T07:06:15.046Z,3.20
2018-05-08T07:07:17.526Z,3.40
2018-05-08T07:08:20.024Z,3.33
2018-05-08T07:09:23.288Z,2.97
2018-05-08T07:10:25.802Z,3.23
2018-05-08T07:11:28.293Z,2.90
2018-05-08T07:12:30.797Z,3.40
2018-05-08T07:13:33.295Z,3.60
2018-05-08T07:14:36.564Z,3.57
2018-05-08T07:15:39.073Z,3.00
2018-05-08T07:16:41.581Z,3.03
2018-05-08T07:17:44.084Z,3.07
2018-05-08T07:18:47.352Z,3.40
2018-05-08T07:19:49.850Z,4.23
2018-05-08T07:20:53.097Z,3.03
2018-05-08T07:21:55.593Z,3.13
2018-05-08T07:22:58.108Z,3.20
2018-05-08T07:24:00.635Z,3.13
2018-05-08T07:25:03.154Z,3.30
2018-05-08T07:26:05.639Z,2.87
2018-05-08T07:27:08.132Z,3.33
2018-05-08T07:28:10.657Z,3.90
2018-05-08T07:29:13.181Z,3.23
2018-05-08T07:30:15.696Z,2.90
2018-05-08T07:31:18.177Z,2.93
2018-05-08T07:32:20.673Z,3.90
2018-05-08T07:33:23.210Z,3.27
2018-05-08T07:34:25.712Z,3.20
2018-05-08T07:35:28.252Z,3.23
2018-05-08T07:36:30.753Z,3.17
2018-05-08T07:37:33.258Z,3.10
2018-05-08T07:38:35.762Z,3.83
2018-05-08T07:39:38.279Z,3.40
2018-05-08T07:40:40.925Z,2.80
2018-05-08T07:41:43.413Z,2.93
2018-05-08T07:42:45.950Z,2.70
2018-05-08T07:43:48.469Z,3.13
2018-05-08T07:44:51.057Z,3.00
2018-05-08T07:45:53.570Z,2.90
2018-05-08T07:46:56.071Z,2.63
2018-05-08T07:47:58.566Z,3.17
2018-05-08T07:49:01.074Z,3.20
2018-05-08T07:50:05.603Z,2.90
2018-05-08T07:51:08.100Z,2.80
2018-05-08T07:52:10.685Z,3.10
2018-05-08T07:53:13.188Z,3.23
2018-05-08T07:54:15.685Z,2.60
2018-05-08T07:55:18.194Z,3.03
2018-05-08T07:56:20.700Z,3.03
2018-05-08T07:57:23.945Z,2.53
2018-05-08T07:58:26.465Z,3.10
2018-05-08T07:59:28.970Z,3.17
2018-05-08T08:00:31.505Z,2.90
2018-05-08T08:01:33.996Z,2.83
2018-05-08T08:02:36.512Z,3.03
2018-05-08T08:03:39.003Z,3.00
2018-05-08T08:04:41.543Z,3.07
2018-05-08T08:05:44.111Z,3.10
2018-05-08T08:06:46.602Z,3.40
2018-05-08T08:07:49.856Z,3.10
2018-05-08T08:08:52.351Z,3.80
2018-05-08T08:09:54.835Z,3.20
2018-05-08T08:10:58.133Z,3.13
2018-05-08T08:12:01.434Z,3.40
2018-05-08T08:13:03.939Z,2.90
2018-05-08T08:14:06.442Z,3.33
2018-05-08T08:15:08.941Z,3.20
2018-05-08T08:16:11.469Z,2.93
2018-05-08T08:17:13.994Z,3.33
2018-05-08T08:18:16.493Z,3.10
2018-05-08T08:19:18.993Z,3.07
2018-05-08T08:20:21.509Z,4.13
2018-05-08T08:21:24.035Z,3.37
2018-05-08T08:22:26.541Z,3.10
2018-05-08T08:23:29.022Z,3.50
2018-05-08T08:24:31.537Z,3.83
2018-05-08T08:25:34.040Z,2.90
2018-05-08T08:26:36.573Z,3.00
2018-05-08T08:27:39.095Z,2.80
2018-05-08T08:28:41.599Z,3.40
2018-05-08T08:29:44.131Z,3.70
2018-05-08T08:30:47.415Z,3.13
2018-05-08T08:31:50.011Z,2.93
2018-05-08T08:32:52.505Z,3.27
2018-05-08T08:33:55.091Z,2.70
2018-05-08T08:34:58.301Z,3.00
2018-05-08T08:36:01.569Z,3.30
2018-05-08T08:37:04.105Z,3.33
2018-05-08T08:38:06.658Z,3.37
2018-05-08T08:39:09.168Z,3.07
2018-05-08T08:40:11.835Z,2.90
2018-05-08T08:41:14.337Z,2.83
2018-05-08T08:42:16.845Z,3.40
2018-05-08T08:43:19.346Z,3.03
2018-05-08T08:44:21.825Z,3.37
2018-05-08T08:45:24.326Z,2.70
2018-05-08T08:46:27.603Z,3.17
2018-05-08T08:47:30.163Z,2.90
2018-05-08T08:48:32.667Z,2.80
2018-05-08T08:49:35.159Z,2.70
2018-05-08T08:50:37.680Z,2.47
2018-05-08T08:51:40.951Z,2.93
2018-05-08T08:52:43.472Z,2.50
2018-05-08T08:53:46.721Z,2.80
2018-05-08T08:54:49.228Z,3.17
2018-05-08T08:55:51.715Z,2.70
2018-05-08T08:56:54.225Z,2.37
2018-05-08T08:57:56.751Z,2.40
2018-05-08T09:03:22.799Z,3.50
2018-05-08T09:04:26.084Z,2.90
2018-05-08T09:05:29.381Z,2.93
2018-05-08T09:06:32.641Z,2.70
2018-05-08T09:07:35.147Z,2.80
2018-05-08T09:08:37.644Z,2.90
2018-05-08T09:09:40.194Z,3.00
2018-05-08T09:10:42.715Z,2.30
2018-05-08T09:11:45.203Z,2.77
2018-05-08T09:12:48.466Z,3.23
2018-05-08T09:13:50.946Z,2.63
2018-05-08T09:14:53.432Z,2.70
2018-05-08T09:15:56.719Z,3.57
2018-05-08T09:16:59.969Z,2.60
2018-05-08T09:18:02.447Z,2.97
2018-05-08T09:19:04.958Z,3.13
2018-05-08T09:20:08.236Z,2.40
2018-05-08T09:21:11.520Z,2.40
2018-05-08T09:22:14.045Z,2.77
2018-05-08T09:23:16.541Z,2.93
2018-05-08T09:24:19.035Z,2.30
2018-05-08T09:25:22.325Z,2.27
2018-05-08T09:26:25.568Z,2.53
2018-05-08T09:27:28.132Z,2.47
2018-05-08T09:28:31.354Z,2.73
2018-05-08T09:29:33.841Z,2.30
2018-05-08T09:30:37.149Z,2.50
2018-05-08T09:31:40.437Z,2.33
2018-05-08T09:32:43.026Z,2.20
2018-05-08T09:33:45.512Z,2.57
2018-05-08T09:34:48.027Z,2.27
2018-05-08T09:35:51.353Z,2.30
2018-05-08T09:36:53.861Z,2.00
2018-05-08T09:37:56.363Z,2.83
2018-05-08T09:38:58.875Z,2.60
2018-05-08T09:40:01.378Z,2.13
2018-05-08T09:41:03.999Z,2.73
2018-05-08T09:42:06.442Z,2.17
2018-05-08T09:43:08.948Z,2.20
2018-05-08T09:44:11.473Z,2.63
2018-05-08T09:45:13.994Z,2.00
2018-05-08T09:46:16.481Z,1.90
2018-05-08T09:47:19.001Z,2.50
2018-05-08T09:48:22.284Z,2.13
2018-05-08T09:49:25.550Z,2.00
2018-05-08T09:50:28.068Z,2.20
2018-05-08T09:51:30.597Z,2.17
2018-05-08T09:52:33.097Z,2.00
2018-05-08T09:53:36.363Z,1.93
2018-05-08T09:54:38.887Z,2.20
2018-05-08T09:55:41.460Z,1.97
2018-05-08T09:56:43.984Z,2.53
2018-05-08T09:57:47.243Z,2.60
2018-05-08T09:58:49.742Z,2.13
2018-05-08T09:59:53.002Z,2.33
2018-05-08T10:00:55.499Z,2.13
2018-05-08T10:01:58.021Z,2.00
2018-05-08T10:03:00.517Z,1.87
2018-05-08T10:04:03.001Z,2.13
2018-05-08T10:05:05.503Z,2.23
2018-05-08T10:06:08.002Z,2.20
2018-05-08T10:07:10.595Z,2.43
2018-05-08T10:08:13.119Z,2.50
2018-05-08T10:09:15.632Z,2.83
2018-05-08T10:10:18.145Z,2.17
2018-05-08T10:11:21.480Z,2.27
2018-05-08T10:12:23.909Z,2.50
2018-05-08T10:13:26.429Z,3.00
2018-05-08T10:14:28.960Z,2.30
2018-05-08T10:15:31.472Z,2.43
2018-05-08T10:16:33.973Z,2.40
2018-05-08T10:17:37.232Z,2.63
2018-05-08T10:18:39.750Z,2.07
2018-05-08T10:19:42.241Z,2.70
2018-05-08T10:20:44.776Z,2.17
2018-05-08T10:21:47.272Z,2.43
2018-05-08T10:22:49.768Z,1.97
2018-05-08T10:23:52.304Z,2.23
2018-05-08T10:24:54.796Z,2.13
2018-05-08T10:25:57.289Z,2.20
2018-05-08T10:26:59.791Z,2.13
2018-05-08T10:28:03.065Z,2.13
2018-05-08T10:29:05.599Z,2.10
2018-05-08T10:30:08.107Z,2.10
2018-05-08T10:31:10.662Z,2.20
2018-05-08T10:32:13.167Z,1.93
2018-05-08T10:33:16.421Z,2.17
2018-05-08T10:34:18.917Z,2.40
2018-05-08T10:35:21.440Z,1.90
2018-05-08T10:36:23.934Z,1.90
2018-05-08T10:37:26.429Z,1.90
2018-05-08T10:38:28.944Z,2.10
2018-05-08T10:39:31.444Z,2.17
2018-05-08T10:40:33.979Z,2.03
2018-05-08T10:41:36.461Z,2.00
2018-05-08T10:42:38.983Z,3.37
2018-05-08T10:43:42.240Z,1.80
2018-05-08T10:44:44.770Z,1.90
2018-05-08T10:45:47.272Z,1.80
2018-05-08T10:46:49.756Z,2.20
2018-05-08T10:47:52.248Z,2.00
2018-05-08T10:48:55.851Z,2.00
2018-05-08T10:49:58.396Z,2.30
2018-05-08T10:51:01.373Z,2.43
2018-05-08T10:52:03.897Z,2.70
2018-05-08T10:53:06.391Z,2.70
2018-05-08T10:54:08.895Z,1.97
2018-05-08T10:55:11.569Z,2.10
2018-05-08T10:56:14.103Z,2.13
2018-05-08T10:57:16.598Z,2.13
2018-05-08T10:58:19.093Z,2.20
2018-05-08T10:59:21.603Z,1.83
2018-05-08T11:00:24.138Z,2.20
2018-05-08T11:01:27.400Z,2.10
2018-05-08T11:02:29.898Z,1.90
2018-05-08T11:03:33.187Z,2.10
2018-05-08T11:04:36.432Z,2.63
2018-05-08T11:05:38.960Z,2.07
2018-05-08T11:06:42.219Z,1.73
2018-05-08T11:07:44.723Z,2.07
2018-05-08T11:08:47.988Z,2.20
2018-05-08T11:09:51.282Z,2.37
2018-05-08T11:10:54.549Z,2.10
2018-05-08T11:11:57.079Z,1.90
2018-05-08T11:12:59.581Z,2.23
2018-05-08T11:14:02.071Z,2.00
2018-05-08T11:15:04.593Z,2.27
2018-05-08T11:16:07.098Z,2.53
2018-05-08T11:17:09.614Z,2.20
2018-05-08T11:18:12.129Z,1.87
2018-05-08T11:19:14.644Z,2.50
2018-05-08T11:20:17.919Z,2.30
2018-05-08T11:21:21.184Z,2.20
2018-05-08T11:22:23.700Z,2.00
2018-05-08T11:23:26.222Z,2.47
2018-05-08T11:24:28.722Z,1.90
2018-05-08T11:25:32.024Z,2.30
2018-05-08T11:26:34.541Z,2.13
2018-05-08T11:27:37.049Z,2.10
2018-05-08T11:28:40.331Z,1.90
2018-05-08T11:29:43.581Z,1.90
2018-05-08T11:30:46.098Z,2.07
2018-05-08T11:31:49.385Z,2.60
2018-05-08T11:32:52.767Z,2.50
2018-05-08T11:33:56.037Z,2.47
2018-05-08T11:34:58.539Z,2.87
2018-05-08T11:36:01.054Z,2.00
2018-05-08T11:37:03.551Z,2.03
2018-05-08T11:38:06.073Z,1.80
2018-05-08T11:39:08.592Z,2.10
2018-05-08T11:40:11.128Z,1.70
2018-05-08T11:41:13.635Z,2.20
2018-05-08T11:42:16.139Z,1.70
2018-05-08T11:43:18.656Z,1.80
2018-05-08T11:44:21.188Z,2.10
2018-05-08T11:45:23.717Z,2.03
2018-05-08T11:46:26.227Z,2.10
2018-05-08T11:47:28.731Z,2.23
2018-05-08T11:48:31.251Z,1.90
2018-05-08T11:49:34.515Z,2.53
2018-05-08T11:50:37.034Z,1.90
2018-05-08T11:51:39.529Z,1.90
2018-05-08T11:52:42.054Z,2.03
2018-05-08T11:53:45.315Z,1.97
2018-05-08T11:54:47.822Z,1.77
2018-05-08T11:55:51.109Z,2.20
2018-05-08T11:56:54.374Z,2.57
2018-05-08T11:57:57.695Z,2.20
2018-05-08T11:59:00.188Z,2.30
2018-05-08T12:00:02.702Z,2.27
2018-05-08T12:01:05.971Z,2.20
2018-05-08T12:02:08.496Z,1.80
2018-05-08T12:03:11.178Z,2.07
2018-05-08T12:04:13.681Z,1.87
2018-05-08T12:05:16.194Z,2.07
2018-05-08T12:06:19.445Z,1.80
2018-05-08T12:07:21.946Z,2.10
2018-05-08T12:08:25.235Z,2.10
2018-05-08T12:09:28.509Z,1.80
2018-05-08T12:10:31.035Z,2.30
2018-05-08T12:11:33.539Z,1.90
2018-05-08T12:12:36.076Z,2.20
2018-05-08T12:13:38.600Z,2.40
2018-05-08T12:14:42.027Z,1.90
2018-05-08T12:15:44.463Z,2.30
2018-05-08T12:16:47.738Z,2.43
2018-05-08T12:17:50.270Z,1.90
2018-05-08T12:18:52.766Z,2.20
2018-05-08T12:19:55.283Z,2.20
2018-05-08T12:20:57.804Z,1.67
2018-05-08T12:22:00.290Z,2.40
2018-05-08T12:23:02.783Z,2.17
2018-05-08T12:24:06.057Z,1.90
2018-05-08T12:25:09.377Z,2.10
2018-05-08T12:26:12.152Z,1.90
2018-05-08T12:27:14.665Z,1.80
2018-05-08T12:28:17.175Z,1.73
2018-05-08T12:29:20.421Z,1.50
2018-05-08T12:30:22.956Z,2.03
2018-05-08T12:31:25.444Z,1.40
2018-05-08T12:32:27.947Z,1.53
2018-05-08T12:33:30.442Z,1.43
2018-05-08T12:34:33.737Z,2.10
2018-05-08T12:35:36.378Z,1.50
2018-05-08T12:36:38.901Z,1.63
2018-05-08T12:37:41.408Z,1.97
2018-05-08T12:38:43.902Z,2.07
2018-05-08T12:39:46.400Z,2.10
2018-05-08T12:40:48.922Z,2.30
2018-05-08T12:41:51.431Z,1.80
2018-05-08T12:42:54.705Z,1.73
2018-05-08T12:43:57.214Z,1.90
2018-05-08T12:44:59.738Z,2.10
2018-05-08T12:46:03.779Z,1.70
2018-05-08T12:47:06.292Z,2.20
2018-05-08T12:48:08.958Z,2.00
2018-05-08T12:49:11.433Z,2.10
2018-05-08T12:50:13.961Z,1.60
2018-05-08T12:51:16.536Z,1.60
2018-05-08T12:52:19.039Z,1.57
2018-05-08T12:53:21.528Z,2.10
2018-05-08T12:54:24.051Z,2.00
2018-05-08T12:55:26.597Z,1.77
2018-05-08T12:56:29.893Z,2.03
2018-05-08T12:57:32.397Z,1.60
2018-05-08T12:58:34.898Z,1.67
2018-05-08T12:59:37.427Z,1.90
2018-05-08T13:00:40.190Z,1.50
2018-05-08T13:01:42.702Z,1.80
2018-05-08T13:02:45.189Z,2.10
2018-05-08T13:03:47.674Z,2.20
2018-05-08T13:04:50.945Z,2.20
2018-05-08T13:05:53.462Z,1.93
2018-05-08T13:06:57.212Z,1.60
2018-05-08T13:08:00.481Z,1.70
2018-05-08T13:09:02.981Z,1.70
2018-05-08T13:10:06.313Z,2.23
2018-05-08T13:11:08.848Z,1.83
2018-05-08T13:12:12.126Z,1.97
2018-05-08T13:13:14.652Z,1.80
2018-05-08T13:14:17.153Z,2.10
2018-05-08T13:15:19.678Z,1.70
2018-05-08T13:16:22.195Z,2.00
2018-05-08T13:17:24.746Z,2.63
2018-05-08T13:18:27.299Z,1.67
2018-05-08T13:19:29.824Z,1.73
2018-05-08T13:20:32.370Z,1.40
2018-05-08T13:21:34.881Z,2.00
2018-05-08T13:22:38.163Z,1.63
2018-05-08T13:23:41.429Z,1.77
2018-05-08T13:24:44.770Z,1.83
2018-05-08T13:25:47.320Z,2.60
2018-05-08T13:26:50.580Z,1.90
2018-05-08T13:27:53.105Z,1.80
2018-05-08T13:28:55.644Z,2.00
2018-05-08T13:29:58.176Z,1.97
2018-05-08T13:31:00.782Z,2.47
2018-05-08T13:32:03.981Z,2.00
2018-05-08T13:33:07.269Z,2.10
2018-05-08T13:34:10.574Z,2.00
2018-05-08T13:35:13.139Z,2.30
2018-05-08T13:36:16.406Z,1.90
2018-05-08T13:37:18.908Z,1.77
2018-05-08T13:38:21.428Z,1.67
2018-05-08T13:39:23.968Z,1.80
2018-05-08T13:40:26.498Z,1.80
2018-05-08T13:41:29.783Z,2.50
2018-05-08T13:42:33.053Z,1.83
2018-05-08T13:43:35.574Z,1.87
2018-05-08T13:44:38.068Z,1.90
2018-05-08T13:45:40.586Z,1.70
2018-05-08T13:46:43.856Z,2.23
2018-05-08T13:47:46.359Z,1.70
2018-05-08T13:48:48.897Z,2.17
2018-05-08T13:49:51.415Z,2.00
2018-05-08T13:50:53.924Z,2.30
2018-05-08T13:51:56.413Z,2.00
2018-05-08T13:52:59.661Z,2.30
2018-05-08T13:54:02.203Z,2.40
2018-05-08T13:55:04.832Z,3.03
2018-05-08T13:56:07.294Z,2.33
2018-05-08T13:57:09.832Z,2.10
2018-05-08T13:58:12.354Z,1.90
2018-05-08T13:59:14.873Z,2.00
2018-05-08T14:00:17.406Z,1.90